sensor_id;sensor_type;location;lat;lon;timestamp;P1;durP1;ratioP1;P2;durP2;ratioP2
16254;SDS011;8235;52.198;9.904;2022-10-17T00:01:31;3.60;;;3.30;;
16254;SDS011;8235;52.198;9.904;2022-10-17T00:03:58;4.43;;;3.30;;
16254;SDS011;8235;52.198;9.904;2022-10-17T00:06:24;3.23;;;2.93;;
16254;SDS011;8235;52.198;9.904;2022-10-17T00:08:51;4.17;;;2.77;;
16254;SDS011;8235;52.198;9.904;2022-10-17T00:11:18;3.07;;;2.50;;
16254;SDS011;8235;52.198;9.904;2022-10-17T00:13:49;3.90;;;2.90;;
16254;SDS011;8235;52.198;9.904;2022-10-17T00:16:22;3.73;;;2.80;;
16254;SDS011;8235;52.198;9.904;2022-10-17T00:18:49;2.97;;;2.77;;
16254;SDS011;8235;52.198;9.904;2022-10-17T00:21:16;4.57;;;2.80;;
16254;SDS011;8235;52.198;9.904;2022-10-17T00:23:43;4.10;;;2.33;;
16254;SDS011;8235;52.198;9.904;2022-10-17T00:26:10;3.97;;;2.97;;
16254;SDS011;8235;52.198;9.904;2022-10-17T00:28:36;3.40;;;3.10;;
16254;SDS011;8235;52.198;9.904;2022-10-17T00:31:05;4.40;;;3.00;;
16254;SDS011;8235;52.198;9.904;2022-10-17T00:33:33;4.13;;;2.80;;
16254;SDS011;8235;52.198;9.904;2022-10-17T00:36:01;3.60;;;2.80;;
16254;SDS011;8235;52.198;9.904;2022-10-17T00:38:29;5.50;;;3.00;;
16254;SDS011;8235;52.198;9.904;2022-10-17T00:40:56;4.43;;;2.43;;
16254;SDS011;8235;52.198;9.904;2022-10-17T00:43:22;2.93;;;2.73;;
16254;SDS011;8235;52.198;9.904;2022-10-17T00:45:49;3.83;;;3.17;;
16254;SDS011;8235;52.198;9.904;2022-10-17T00:48:17;3.90;;;3.40;;
16254;SDS011;8235;52.198;9.904;2022-10-17T00:50:46;8.10;;;3.63;;
16254;SDS011;8235;52.198;9.904;2022-10-17T00:53:15;4.27;;;3.20;;
16254;SDS011;8235;52.198;9.904;2022-10-17T00:55:43;3.47;;;3.13;;
16254;SDS011;8235;52.198;9.904;2022-10-17T00:58:14;4.23;;;3.43;;
16254;SDS011;8235;52.198;9.904;2022-10-17T01:00:42;5.07;;;3.70;;
16254;SDS011;8235;52.198;9.904;2022-10-17T01:03:10;5.07;;;3.83;;
16254;SDS011;8235;52.198;9.904;2022-10-17T01:05:38;3.87;;;3.47;;
16254;SDS011;8235;52.198;9.904;2022-10-17T01:08:06;3.67;;;3.37;;
16254;SDS011;8235;52.198;9.904;2022-10-17T01:10:36;3.97;;;3.10;;
16254;SDS011;8235;52.198;9.904;2022-10-17T01:13:12;4.43;;;3.53;;
16254;SDS011;8235;52.198;9.904;2022-10-17T01:15:49;4.23;;;2.93;;
16254;SDS011;8235;52.198;9.904;2022-10-17T01:18:28;5.07;;;3.17;;
16254;SDS011;8235;52.198;9.904;2022-10-17T01:21:09;3.90;;;2.83;;
16254;SDS011;8235;52.198;9.904;2022-10-17T01:24:02;4.60;;;3.07;;
16254;SDS011;8235;52.198;9.904;2022-10-17T01:27:22;2.87;;;2.00;;
16254;SDS011;8235;52.198;9.904;2022-10-17T01:30:13;3.27;;;2.63;;
16254;SDS011;8235;52.198;9.904;2022-10-17T01:32:53;2.77;;;2.47;;
16254;SDS011;8235;52.198;9.904;2022-10-17T01:35:24;2.77;;;2.50;;
16254;SDS011;8235;52.198;9.904;2022-10-17T01:37:56;2.80;;;2.50;;
16254;SDS011;8235;52.198;9.904;2022-10-17T01:40:30;2.83;;;2.53;;
16254;SDS011;8235;52.198;9.904;2022-10-17T01:43:04;3.27;;;2.40;;
16254;SDS011;8235;52.198;9.904;2022-10-17T01:45:36;2.60;;;2.40;;
16254;SDS011;8235;52.198;9.904;2022-10-17T01:48:12;3.03;;;2.73;;
16254;SDS011;8235;52.198;9.904;2022-10-17T01:50:43;3.83;;;2.53;;
16254;SDS011;8235;52.198;9.904;2022-10-17T01:53:15;2.40;;;2.20;;
16254;SDS011;8235;52.198;9.904;2022-10-17T01:55:45;4.03;;;2.67;;
16254;SDS011;8235;52.198;9.904;2022-10-17T01:58:15;3.30;;;2.20;;
16254;SDS011;8235;52.198;9.904;2022-10-17T02:00:47;4.80;;;2.37;;
16254;SDS011;8235;52.198;9.904;2022-10-17T02:03:16;2.47;;;2.27;;
16254;SDS011;8235;52.198;9.904;2022-10-17T02:05:45;2.83;;;2.57;;
16254;SDS011;8235;52.198;9.904;2022-10-17T02:08:12;4.00;;;2.60;;
16254;SDS011;8235;52.198;9.904;2022-10-17T02:10:41;2.80;;;2.60;;
16254;SDS011;8235;52.198;9.904;2022-10-17T02:13:13;4.40;;;3.10;;
16254;SDS011;8235;52.198;9.904;2022-10-17T02:15:56;4.07;;;2.57;;
16254;SDS011;8235;52.198;9.904;2022-10-17T02:18:35;3.10;;;2.80;;
16254;SDS011;8235;52.198;9.904;2022-10-17T02:21:13;4.23;;;3.40;;
16254;SDS011;8235;52.198;9.904;2022-10-17T02:23:46;3.73;;;2.90;;
16254;SDS011;8235;52.198;9.904;2022-10-17T02:26:19;3.37;;;3.03;;
16254;SDS011;8235;52.198;9.904;2022-10-17T02:28:55;5.60;;;3.10;;
16254;SDS011;8235;52.198;9.904;2022-10-17T02:31:29;3.27;;;2.97;;
16254;SDS011;8235;52.198;9.904;2022-10-17T02:34:00;6.00;;;3.60;;
16254;SDS011;8235;52.198;9.904;2022-10-17T02:36:29;4.00;;;3.53;;
16254;SDS011;8235;52.198;9.904;2022-10-17T02:39:01;4.47;;;3.53;;
16254;SDS011;8235;52.198;9.904;2022-10-17T02:41:29;3.50;;;3.20;;
16254;SDS011;8235;52.198;9.904;2022-10-17T02:43:58;3.83;;;3.53;;
16254;SDS011;8235;52.198;9.904;2022-10-17T02:46:27;4.13;;;3.73;;
16254;SDS011;8235;52.198;9.904;2022-10-17T02:48:56;3.80;;;3.50;;
16254;SDS011;8235;52.198;9.904;2022-10-17T02:51:28;6.47;;;3.63;;
16254;SDS011;8235;52.198;9.904;2022-10-17T02:54:04;3.47;;;3.23;;
16254;SDS011;8235;52.198;9.904;2022-10-17T02:56:35;4.83;;;3.07;;
16254;SDS011;8235;52.198;9.904;2022-10-17T02:59:06;3.87;;;3.47;;
16254;SDS011;8235;52.198;9.904;2022-10-17T03:01:37;5.07;;;3.70;;
16254;SDS011;8235;52.198;9.904;2022-10-17T03:04:04;3.67;;;3.00;;
16254;SDS011;8235;52.198;9.904;2022-10-17T03:06:33;4.20;;;3.33;;
16254;SDS011;8235;52.198;9.904;2022-10-17T03:09:00;4.17;;;3.47;;
16254;SDS011;8235;52.198;9.904;2022-10-17T03:11:27;3.30;;;3.00;;
16254;SDS011;8235;52.198;9.904;2022-10-17T03:13:53;3.50;;;3.20;;
16254;SDS011;8235;52.198;9.904;2022-10-17T03:16:20;5.10;;;3.27;;
16254;SDS011;8235;52.198;9.904;2022-10-17T03:18:46;4.00;;;3.60;;
16254;SDS011;8235;52.198;9.904;2022-10-17T03:21:13;3.93;;;3.13;;
16254;SDS011;8235;52.198;9.904;2022-10-17T03:23:41;4.00;;;3.17;;
16254;SDS011;8235;52.198;9.904;2022-10-17T03:26:08;4.17;;;2.90;;
16254;SDS011;8235;52.198;9.904;2022-10-17T03:28:35;3.70;;;3.40;;
16254;SDS011;8235;52.198;9.904;2022-10-17T03:31:05;3.23;;;2.93;;
16254;SDS011;8235;52.198;9.904;2022-10-17T03:33:32;3.90;;;3.20;;
16254;SDS011;8235;52.198;9.904;2022-10-17T03:35:58;4.20;;;3.60;;
16254;SDS011;8235;52.198;9.904;2022-10-17T03:38:25;3.63;;;3.33;;
16254;SDS011;8235;52.198;9.904;2022-10-17T03:40:56;4.00;;;3.13;;
16254;SDS011;8235;52.198;9.904;2022-10-17T03:43:22;5.80;;;4.03;;
16254;SDS011;8235;52.198;9.904;2022-10-17T03:45:49;4.17;;;3.70;;
16254;SDS011;8235;52.198;9.904;2022-10-17T03:48:15;4.57;;;3.73;;
16254;SDS011;8235;52.198;9.904;2022-10-17T03:50:41;4.73;;;3.47;;
16254;SDS011;8235;52.198;9.904;2022-10-17T03:53:08;3.67;;;3.37;;
16254;SDS011;8235;52.198;9.904;2022-10-17T03:55:34;4.10;;;3.80;;
16254;SDS011;8235;52.198;9.904;2022-10-17T03:58:02;3.60;;;3.30;;
16254;SDS011;8235;52.198;9.904;2022-10-17T04:00:29;4.00;;;3.60;;
16254;SDS011;8235;52.198;9.904;2022-10-17T04:02:56;4.83;;;3.90;;
16254;SDS011;8235;52.198;9.904;2022-10-17T04:05:22;4.20;;;3.80;;
16254;SDS011;8235;52.198;9.904;2022-10-17T04:07:49;4.10;;;3.80;;
16254;SDS011;8235;52.198;9.904;2022-10-17T04:10:15;4.87;;;3.70;;
16254;SDS011;8235;52.198;9.904;2022-10-17T04:12:42;6.30;;;4.77;;
16254;SDS011;8235;52.198;9.904;2022-10-17T04:15:10;5.00;;;4.03;;
16254;SDS011;8235;52.198;9.904;2022-10-17T04:17:37;5.77;;;4.47;;
16254;SDS011;8235;52.198;9.904;2022-10-17T04:20:03;5.87;;;4.70;;
16254;SDS011;8235;52.198;9.904;2022-10-17T04:22:30;5.13;;;4.50;;
16254;SDS011;8235;52.198;9.904;2022-10-17T04:24:57;5.47;;;4.37;;
16254;SDS011;8235;52.198;9.904;2022-10-17T04:27:23;5.57;;;4.10;;
16254;SDS011;8235;52.198;9.904;2022-10-17T04:29:50;4.83;;;3.83;;
16254;SDS011;8235;52.198;9.904;2022-10-17T04:32:17;4.47;;;4.07;;
16254;SDS011;8235;52.198;9.904;2022-10-17T04:34:46;4.70;;;3.83;;
16254;SDS011;8235;52.198;9.904;2022-10-17T04:37:13;5.63;;;3.50;;
16254;SDS011;8235;52.198;9.904;2022-10-17T04:39:40;4.33;;;3.60;;
16254;SDS011;8235;52.198;9.904;2022-10-17T04:42:06;3.87;;;3.10;;
16254;SDS011;8235;52.198;9.904;2022-10-17T04:44:32;3.70;;;3.17;;
16254;SDS011;8235;52.198;9.904;2022-10-17T04:46:59;5.30;;;2.77;;
16254;SDS011;8235;52.198;9.904;2022-10-17T04:49:27;3.30;;;2.70;;
16254;SDS011;8235;52.198;9.904;2022-10-17T04:51:54;2.80;;;2.60;;
16254;SDS011;8235;52.198;9.904;2022-10-17T04:54:20;3.80;;;2.97;;
16254;SDS011;8235;52.198;9.904;2022-10-17T04:56:47;3.97;;;2.97;;
16254;SDS011;8235;52.198;9.904;2022-10-17T04:59:13;4.80;;;2.63;;
16254;SDS011;8235;52.198;9.904;2022-10-17T05:01:39;3.67;;;2.70;;
16254;SDS011;8235;52.198;9.904;2022-10-17T05:04:06;3.27;;;2.93;;
16254;SDS011;8235;52.198;9.904;2022-10-17T05:06:34;3.07;;;2.80;;
16254;SDS011;8235;52.198;9.904;2022-10-17T05:09:02;5.07;;;3.37;;
16254;SDS011;8235;52.198;9.904;2022-10-17T05:11:29;3.47;;;2.90;;
16254;SDS011;8235;52.198;9.904;2022-10-17T05:13:56;3.70;;;2.73;;
16254;SDS011;8235;52.198;9.904;2022-10-17T05:16:23;5.67;;;2.70;;
16254;SDS011;8235;52.198;9.904;2022-10-17T05:18:51;3.07;;;2.17;;
16254;SDS011;8235;52.198;9.904;2022-10-17T05:21:19;4.93;;;3.10;;
16254;SDS011;8235;52.198;9.904;2022-10-17T05:23:49;2.73;;;2.40;;
16254;SDS011;8235;52.198;9.904;2022-10-17T05:26:15;3.20;;;2.30;;
16254;SDS011;8235;52.198;9.904;2022-10-17T05:28:42;4.57;;;2.70;;
16254;SDS011;8235;52.198;9.904;2022-10-17T05:31:09;3.57;;;2.50;;
16254;SDS011;8235;52.198;9.904;2022-10-17T05:33:36;3.57;;;2.50;;
16254;SDS011;8235;52.198;9.904;2022-10-17T05:36:04;5.30;;;3.03;;
16254;SDS011;8235;52.198;9.904;2022-10-17T05:38:31;3.00;;;2.70;;
16254;SDS011;8235;52.198;9.904;2022-10-17T05:41:00;3.23;;;2.70;;
16254;SDS011;8235;52.198;9.904;2022-10-17T05:43:28;3.20;;;2.90;;
16254;SDS011;8235;52.198;9.904;2022-10-17T05:45:55;3.63;;;2.77;;
16254;SDS011;8235;52.198;9.904;2022-10-17T05:48:22;4.67;;;2.63;;
16254;SDS011;8235;52.198;9.904;2022-10-17T05:50:55;4.37;;;2.70;;
16254;SDS011;8235;52.198;9.904;2022-10-17T05:53:23;3.23;;;2.67;;
16254;SDS011;8235;52.198;9.904;2022-10-17T05:55:54;4.87;;;3.20;;
16254;SDS011;8235;52.198;9.904;2022-10-17T05:58:22;7.10;;;3.17;;
16254;SDS011;8235;52.198;9.904;2022-10-17T06:00:48;2.97;;;2.70;;
16254;SDS011;8235;52.198;9.904;2022-10-17T06:03:15;3.80;;;2.80;;
16254;SDS011;8235;52.198;9.904;2022-10-17T06:05:42;4.30;;;3.20;;
16254;SDS011;8235;52.198;9.904;2022-10-17T06:08:08;3.53;;;3.20;;
16254;SDS011;8235;52.198;9.904;2022-10-17T06:10:34;3.20;;;2.90;;
16254;SDS011;8235;52.198;9.904;2022-10-17T06:13:01;3.67;;;3.20;;
16254;SDS011;8235;52.198;9.904;2022-10-17T06:15:29;4.13;;;2.87;;
16254;SDS011;8235;52.198;9.904;2022-10-17T06:17:55;4.63;;;3.20;;
16254;SDS011;8235;52.198;9.904;2022-10-17T06:20:22;6.03;;;3.50;;
16254;SDS011;8235;52.198;9.904;2022-10-17T06:22:48;3.83;;;2.87;;
16254;SDS011;8235;52.198;9.904;2022-10-17T06:25:15;4.50;;;3.33;;
16254;SDS011;8235;52.198;9.904;2022-10-17T06:27:41;4.43;;;3.57;;
16254;SDS011;8235;52.198;9.904;2022-10-17T06:30:08;4.93;;;4.00;;
16254;SDS011;8235;52.198;9.904;2022-10-17T06:32:36;3.73;;;3.37;;
16254;SDS011;8235;52.198;9.904;2022-10-17T06:35:03;6.07;;;3.47;;
16254;SDS011;8235;52.198;9.904;2022-10-17T06:37:30;5.07;;;3.27;;
16254;SDS011;8235;52.198;9.904;2022-10-17T06:39:57;5.17;;;3.60;;
16254;SDS011;8235;52.198;9.904;2022-10-17T06:42:24;7.70;;;3.43;;
16254;SDS011;8235;52.198;9.904;2022-10-17T06:44:51;5.87;;;3.70;;
16254;SDS011;8235;52.198;9.904;2022-10-17T06:47:17;5.00;;;3.60;;
16254;SDS011;8235;52.198;9.904;2022-10-17T06:49:45;5.33;;;3.57;;
16254;SDS011;8235;52.198;9.904;2022-10-17T06:52:11;4.03;;;3.63;;
16254;SDS011;8235;52.198;9.904;2022-10-17T06:54:38;4.63;;;3.50;;
16254;SDS011;8235;52.198;9.904;2022-10-17T06:57:05;4.90;;;3.77;;
16254;SDS011;8235;52.198;9.904;2022-10-17T06:59:31;4.90;;;3.60;;
16254;SDS011;8235;52.198;9.904;2022-10-17T07:01:59;4.43;;;3.37;;
16254;SDS011;8235;52.198;9.904;2022-10-17T07:04:25;4.77;;;3.10;;
16254;SDS011;8235;52.198;9.904;2022-10-17T07:06:54;4.90;;;3.10;;
16254;SDS011;8235;52.198;9.904;2022-10-17T07:09:20;4.20;;;3.03;;
16254;SDS011;8235;52.198;9.904;2022-10-17T07:11:48;7.23;;;3.53;;
16254;SDS011;8235;52.198;9.904;2022-10-17T07:14:14;3.30;;;2.93;;
16254;SDS011;8235;52.198;9.904;2022-10-17T07:16:41;4.77;;;3.13;;
16254;SDS011;8235;52.198;9.904;2022-10-17T07:19:07;3.90;;;2.90;;
16254;SDS011;8235;52.198;9.904;2022-10-17T07:21:34;3.83;;;2.67;;
16254;SDS011;8235;52.198;9.904;2022-10-17T07:24:02;4.00;;;2.83;;
16254;SDS011;8235;52.198;9.904;2022-10-17T07:26:29;4.40;;;3.10;;
16254;SDS011;8235;52.198;9.904;2022-10-17T07:28:56;4.50;;;3.10;;
16254;SDS011;8235;52.198;9.904;2022-10-17T07:31:22;3.67;;;2.90;;
16254;SDS011;8235;52.198;9.904;2022-10-17T07:33:49;3.07;;;2.83;;
16254;SDS011;8235;52.198;9.904;2022-10-17T07:36:17;4.97;;;3.20;;
16254;SDS011;8235;52.198;9.904;2022-10-17T07:38:43;4.83;;;3.03;;
16254;SDS011;8235;52.198;9.904;2022-10-17T07:41:11;5.80;;;3.00;;
16254;SDS011;8235;52.198;9.904;2022-10-17T07:43:38;6.13;;;2.80;;
16254;SDS011;8235;52.198;9.904;2022-10-17T07:46:06;6.37;;;3.23;;
16254;SDS011;8235;52.198;9.904;2022-10-17T07:48:35;3.80;;;2.93;;
16254;SDS011;8235;52.198;9.904;2022-10-17T07:51:02;4.50;;;2.57;;
16254;SDS011;8235;52.198;9.904;2022-10-17T07:53:29;7.70;;;2.83;;
16254;SDS011;8235;52.198;9.904;2022-10-17T07:55:56;2.90;;;2.50;;
16254;SDS011;8235;52.198;9.904;2022-10-17T07:58:24;3.80;;;2.30;;
16254;SDS011;8235;52.198;9.904;2022-10-17T08:00:52;6.53;;;2.80;;
16254;SDS011;8235;52.198;9.904;2022-10-17T08:03:19;2.97;;;2.50;;
16254;SDS011;8235;52.198;9.904;2022-10-17T08:05:45;6.53;;;2.80;;
16254;SDS011;8235;52.198;9.904;2022-10-17T08:08:12;3.10;;;2.80;;
16254;SDS011;8235;52.198;9.904;2022-10-17T08:10:38;4.43;;;2.47;;
16254;SDS011;8235;52.198;9.904;2022-10-17T08:13:05;4.60;;;2.47;;
16254;SDS011;8235;52.198;9.904;2022-10-17T08:15:37;4.40;;;2.60;;
16254;SDS011;8235;52.198;9.904;2022-10-17T08:18:04;4.90;;;2.27;;
16254;SDS011;8235;52.198;9.904;2022-10-17T08:20:35;4.93;;;2.40;;
16254;SDS011;8235;52.198;9.904;2022-10-17T08:23:05;4.27;;;2.43;;
16254;SDS011;8235;52.198;9.904;2022-10-17T08:25:48;2.90;;;2.30;;
16254;SDS011;8235;52.198;9.904;2022-10-17T08:28:20;4.63;;;2.30;;
16254;SDS011;8235;52.198;9.904;2022-10-17T08:31:06;4.27;;;2.63;;
16254;SDS011;8235;52.198;9.904;2022-10-17T08:33:37;4.00;;;2.50;;
16254;SDS011;8235;52.198;9.904;2022-10-17T08:36:04;2.40;;;2.20;;
16254;SDS011;8235;52.198;9.904;2022-10-17T08:38:31;6.10;;;2.20;;
16254;SDS011;8235;52.198;9.904;2022-10-17T08:44:31;3.00;;;2.17;;
16254;SDS011;8235;52.198;9.904;2022-10-17T08:47:08;4.03;;;2.30;;
16254;SDS011;8235;52.198;9.904;2022-10-17T08:49:51;6.10;;;2.33;;
16254;SDS011;8235;52.198;9.904;2022-10-17T08:52:27;4.07;;;2.50;;
16254;SDS011;8235;52.198;9.904;2022-10-17T08:55:00;3.53;;;2.47;;
16254;SDS011;8235;52.198;9.904;2022-10-17T08:57:26;1.80;;;1.70;;
16254;SDS011;8235;52.198;9.904;2022-10-17T08:59:56;4.03;;;2.33;;
16254;SDS011;8235;52.198;9.904;2022-10-17T09:02:36;2.07;;;1.97;;
16254;SDS011;8235;52.198;9.904;2022-10-17T09:05:18;3.37;;;2.30;;
16254;SDS011;8235;52.198;9.904;2022-10-17T09:07:52;3.80;;;2.00;;
16254;SDS011;8235;52.198;9.904;2022-10-17T09:10:27;2.80;;;1.90;;
16254;SDS011;8235;52.198;9.904;2022-10-17T09:13:06;3.80;;;2.37;;
16254;SDS011;8235;52.198;9.904;2022-10-17T09:15:46;6.00;;;2.53;;
16254;SDS011;8235;52.198;9.904;2022-10-17T09:18:27;2.90;;;2.10;;
16254;SDS011;8235;52.198;9.904;2022-10-17T09:20:58;5.07;;;2.90;;
16254;SDS011;8235;52.198;9.904;2022-10-17T09:23:28;3.27;;;2.47;;
16254;SDS011;8235;52.198;9.904;2022-10-17T09:26:01;4.27;;;2.43;;
16254;SDS011;8235;52.198;9.904;2022-10-17T09:28:28;3.50;;;2.20;;
16254;SDS011;8235;52.198;9.904;2022-10-17T09:30:58;2.60;;;2.27;;
16254;SDS011;8235;52.198;9.904;2022-10-17T09:33:31;2.90;;;2.37;;
16254;SDS011;8235;52.198;9.904;2022-10-17T09:36:03;3.73;;;2.63;;
16254;SDS011;8235;52.198;9.904;2022-10-17T09:38:36;6.13;;;2.50;;
16254;SDS011;8235;52.198;9.904;2022-10-17T09:41:05;5.17;;;2.87;;
16254;SDS011;8235;52.198;9.904;2022-10-17T09:43:40;3.10;;;2.10;;
16254;SDS011;8235;52.198;9.904;2022-10-17T09:46:07;3.60;;;2.30;;
16254;SDS011;8235;52.198;9.904;2022-10-17T09:48:42;2.33;;;2.07;;
16254;SDS011;8235;52.198;9.904;2022-10-17T09:51:12;4.27;;;2.70;;
16254;SDS011;8235;52.198;9.904;2022-10-17T09:53:41;3.70;;;2.15;;
16254;SDS011;8235;52.198;9.904;2022-10-17T09:56:12;3.55;;;2.53;;
16254;SDS011;8235;52.198;9.904;2022-10-17T09:58:41;5.40;;;2.60;;
16254;SDS011;8235;52.198;9.904;2022-10-17T10:01:16;2.77;;;1.73;;
16254;SDS011;8235;52.198;9.904;2022-10-17T10:03:45;3.25;;;2.10;;
16254;SDS011;8235;52.198;9.904;2022-10-17T10:06:13;5.13;;;2.40;;
16254;SDS011;8235;52.198;9.904;2022-10-17T10:08:47;3.50;;;2.40;;
16254;SDS011;8235;52.198;9.904;2022-10-17T10:11:17;3.75;;;2.15;;
16254;SDS011;8235;52.198;9.904;2022-10-17T10:13:45;2.93;;;2.10;;
16254;SDS011;8235;52.198;9.904;2022-10-17T10:16:14;5.07;;;1.98;;
16254;SDS011;8235;52.198;9.904;2022-10-17T10:18:43;4.95;;;2.08;;
16254;SDS011;8235;52.198;9.904;2022-10-17T10:21:12;3.50;;;2.00;;
16254;SDS011;8235;52.198;9.904;2022-10-17T10:23:40;4.38;;;1.98;;
16254;SDS011;8235;52.198;9.904;2022-10-17T10:26:16;3.83;;;2.10;;
16254;SDS011;8235;52.198;9.904;2022-10-17T10:28:53;4.88;;;2.13;;
16254;SDS011;8235;52.198;9.904;2022-10-17T10:31:26;5.38;;;2.55;;
16254;SDS011;8235;52.198;9.904;2022-10-17T10:33:56;4.35;;;2.35;;
16254;SDS011;8235;52.198;9.904;2022-10-17T10:36:40;3.97;;;2.03;;
16254;SDS011;8235;52.198;9.904;2022-10-17T10:39:27;3.05;;;2.08;;
16254;SDS011;8235;52.198;9.904;2022-10-17T10:41:58;6.05;;;2.47;;
16254;SDS011;8235;52.198;9.904;2022-10-17T10:44:25;6.28;;;2.42;;
16254;SDS011;8235;52.198;9.904;2022-10-17T10:47:07;4.60;;;2.05;;
16254;SDS011;8235;52.198;9.904;2022-10-17T10:49:42;6.07;;;2.53;;
16254;SDS011;8235;52.198;9.904;2022-10-17T10:52:10;2.40;;;2.13;;
16254;SDS011;8235;52.198;9.904;2022-10-17T10:54:52;3.92;;;2.00;;
16254;SDS011;8235;52.198;9.904;2022-10-17T10:57:25;5.03;;;2.08;;
16254;SDS011;8235;52.198;9.904;2022-10-17T10:59:57;3.83;;;2.17;;
16254;SDS011;8235;52.198;9.904;2022-10-17T11:02:29;4.30;;;2.42;;
16254;SDS011;8235;52.198;9.904;2022-10-17T11:05:02;4.80;;;2.33;;
16254;SDS011;8235;52.198;9.904;2022-10-17T11:07:34;5.43;;;2.00;;
16254;SDS011;8235;52.198;9.904;2022-10-17T11:10:13;3.17;;;2.20;;
16254;SDS011;8235;52.198;9.904;2022-10-17T11:12:43;6.45;;;2.17;;
16254;SDS011;8235;52.198;9.904;2022-10-17T11:15:16;3.50;;;2.40;;
16254;SDS011;8235;52.198;9.904;2022-10-17T11:17:51;8.82;;;2.25;;
16254;SDS011;8235;52.198;9.904;2022-10-17T11:20:26;4.43;;;2.20;;
16254;SDS011;8235;52.198;9.904;2022-10-17T11:23:01;3.50;;;1.92;;
16254;SDS011;8235;52.198;9.904;2022-10-17T11:25:43;3.92;;;2.08;;
16254;SDS011;8235;52.198;9.904;2022-10-17T11:28:11;4.05;;;2.00;;
16254;SDS011;8235;52.198;9.904;2022-10-17T11:30:41;3.38;;;2.08;;
16254;SDS011;8235;52.198;9.904;2022-10-17T11:33:14;3.45;;;1.85;;
16254;SDS011;8235;52.198;9.904;2022-10-17T11:35:46;4.75;;;2.20;;
16254;SDS011;8235;52.198;9.904;2022-10-17T11:38:17;2.83;;;2.10;;
16254;SDS011;8235;52.198;9.904;2022-10-17T11:40:48;5.10;;;1.88;;
16254;SDS011;8235;52.198;9.904;2022-10-17T11:43:18;2.78;;;1.90;;
16254;SDS011;8235;52.198;9.904;2022-10-17T11:45:52;5.38;;;2.03;;
16254;SDS011;8235;52.198;9.904;2022-10-17T11:48:24;10.32;;;3.53;;
16254;SDS011;8235;52.198;9.904;2022-10-17T11:50:59;5.63;;;2.47;;
16254;SDS011;8235;52.198;9.904;2022-10-17T11:53:33;3.03;;;1.95;;
16254;SDS011;8235;52.198;9.904;2022-10-17T11:56:10;3.47;;;1.98;;
16254;SDS011;8235;52.198;9.904;2022-10-17T11:58:38;7.47;;;2.00;;
16254;SDS011;8235;52.198;9.904;2022-10-17T12:01:13;4.22;;;1.83;;
16254;SDS011;8235;52.198;9.904;2022-10-17T12:03:53;3.72;;;1.98;;
16254;SDS011;8235;52.198;9.904;2022-10-17T12:06:34;3.20;;;1.77;;
16254;SDS011;8235;52.198;9.904;2022-10-17T12:09:10;5.47;;;2.10;;
16254;SDS011;8235;52.198;9.904;2022-10-17T12:11:47;2.25;;;1.80;;
16254;SDS011;8235;52.198;9.904;2022-10-17T12:14:34;3.00;;;2.00;;
16254;SDS011;8235;52.198;9.904;2022-10-17T12:19:56;3.30;;;1.95;;
16254;SDS011;8235;52.198;9.904;2022-10-17T12:22:51;6.88;;;3.88;;
16254;SDS011;8235;52.198;9.904;2022-10-17T12:25:20;3.35;;;1.73;;
16254;SDS011;8235;52.198;9.904;2022-10-17T12:27:50;3.15;;;2.13;;
16254;SDS011;8235;52.198;9.904;2022-10-17T12:30:50;2.63;;;1.67;;
16254;SDS011;8235;52.198;9.904;2022-10-17T12:33:19;3.47;;;1.92;;
16254;SDS011;8235;52.198;9.904;2022-10-17T12:35:48;4.97;;;1.80;;
16254;SDS011;8235;52.198;9.904;2022-10-17T12:38:24;4.05;;;2.03;;
16254;SDS011;8235;52.198;9.904;2022-10-17T12:40:59;5.68;;;1.77;;
16254;SDS011;8235;52.198;9.904;2022-10-17T12:43:33;2.58;;;2.13;;
16254;SDS011;8235;52.198;9.904;2022-10-17T12:46:11;5.50;;;1.80;;
16254;SDS011;8235;52.198;9.904;2022-10-17T12:49:00;3.65;;;1.67;;
16254;SDS011;8235;52.198;9.904;2022-10-17T12:51:29;3.17;;;1.80;;
16254;SDS011;8235;52.198;9.904;2022-10-17T12:54:38;5.00;;;1.92;;
16254;SDS011;8235;52.198;9.904;2022-10-17T12:57:12;4.57;;;2.10;;
16254;SDS011;8235;52.198;9.904;2022-10-17T12:59:41;2.17;;;1.75;;
16254;SDS011;8235;52.198;9.904;2022-10-17T13:02:08;3.08;;;1.90;;
16254;SDS011;8235;52.198;9.904;2022-10-17T13:04:42;4.35;;;1.70;;
16254;SDS011;8235;52.198;9.904;2022-10-17T13:07:11;3.75;;;1.90;;
16254;SDS011;8235;52.198;9.904;2022-10-17T13:09:45;5.57;;;2.22;;
16254;SDS011;8235;52.198;9.904;2022-10-17T13:12:13;2.20;;;1.70;;
16254;SDS011;8235;52.198;9.904;2022-10-17T13:14:43;3.78;;;2.00;;
16254;SDS011;8235;52.198;9.904;2022-10-17T13:17:19;3.25;;;1.92;;
16254;SDS011;8235;52.198;9.904;2022-10-17T13:19:48;5.28;;;1.60;;
16254;SDS011;8235;52.198;9.904;2022-10-17T13:22:16;5.20;;;1.88;;
16254;SDS011;8235;52.198;9.904;2022-10-17T13:24:46;5.15;;;2.65;;
16254;SDS011;8235;52.198;9.904;2022-10-17T13:27:24;6.85;;;2.28;;
16254;SDS011;8235;52.198;9.904;2022-10-17T13:29:52;4.85;;;2.38;;
16254;SDS011;8235;52.198;9.904;2022-10-17T13:32:21;3.17;;;1.95;;
16254;SDS011;8235;52.198;9.904;2022-10-17T13:35:03;5.00;;;2.05;;
16254;SDS011;8235;52.198;9.904;2022-10-17T13:37:31;3.67;;;1.80;;
16254;SDS011;8235;52.198;9.904;2022-10-17T13:40:00;3.58;;;2.10;;
16254;SDS011;8235;52.198;9.904;2022-10-17T13:42:28;5.80;;;2.28;;
16254;SDS011;8235;52.198;9.904;2022-10-17T13:44:55;4.10;;;2.00;;
16254;SDS011;8235;52.198;9.904;2022-10-17T13:47:25;3.08;;;2.10;;
16254;SDS011;8235;52.198;9.904;2022-10-17T13:49:54;5.32;;;2.10;;
16254;SDS011;8235;52.198;9.904;2022-10-17T13:52:23;2.45;;;2.17;;
16254;SDS011;8235;52.198;9.904;2022-10-17T13:54:52;3.47;;;2.33;;
16254;SDS011;8235;52.198;9.904;2022-10-17T13:57:22;5.03;;;2.35;;
16254;SDS011;8235;52.198;9.904;2022-10-17T13:59:50;3.35;;;2.22;;
16254;SDS011;8235;52.198;9.904;2022-10-17T14:02:20;3.72;;;1.95;;
16254;SDS011;8235;52.198;9.904;2022-10-17T14:04:58;4.88;;;1.85;;
16254;SDS011;8235;52.198;9.904;2022-10-17T14:07:27;5.70;;;2.10;;
16254;SDS011;8235;52.198;9.904;2022-10-17T14:09:57;4.82;;;2.50;;
16254;SDS011;8235;52.198;9.904;2022-10-17T14:12:26;3.97;;;2.00;;
16254;SDS011;8235;52.198;9.904;2022-10-17T14:14:52;5.82;;;2.22;;
16254;SDS011;8235;52.198;9.904;2022-10-17T14:17:21;8.90;;;4.35;;
16254;SDS011;8235;52.198;9.904;2022-10-17T14:20:07;3.85;;;2.40;;
16254;SDS011;8235;52.198;9.904;2022-10-17T14:22:43;3.33;;;2.50;;
16254;SDS011;8235;52.198;9.904;2022-10-17T14:25:25;5.22;;;2.10;;
16254;SDS011;8235;52.198;9.904;2022-10-17T14:27:54;4.97;;;2.22;;
16254;SDS011;8235;52.198;9.904;2022-10-17T14:30:31;3.65;;;2.15;;
16254;SDS011;8235;52.198;9.904;2022-10-17T14:33:00;5.90;;;2.80;;
16254;SDS011;8235;52.198;9.904;2022-10-17T14:35:28;6.10;;;2.90;;
16254;SDS011;8235;52.198;9.904;2022-10-17T14:37:56;4.63;;;2.47;;
16254;SDS011;8235;52.198;9.904;2022-10-17T14:40:24;4.03;;;2.35;;
16254;SDS011;8235;52.198;9.904;2022-10-17T14:42:54;5.32;;;2.65;;
16254;SDS011;8235;52.198;9.904;2022-10-17T14:45:24;4.32;;;2.88;;
16254;SDS011;8235;52.198;9.904;2022-10-17T14:47:54;7.95;;;2.70;;
16254;SDS011;8235;52.198;9.904;2022-10-17T14:50:23;5.30;;;2.70;;
16254;SDS011;8235;52.198;9.904;2022-10-17T14:52:57;5.72;;;2.53;;
16254;SDS011;8235;52.198;9.904;2022-10-17T14:55:26;3.42;;;2.50;;
16254;SDS011;8235;52.198;9.904;2022-10-17T14:57:55;4.80;;;2.40;;
16254;SDS011;8235;52.198;9.904;2022-10-17T15:00:22;5.05;;;2.53;;
16254;SDS011;8235;52.198;9.904;2022-10-17T15:02:49;4.60;;;2.30;;
16254;SDS011;8235;52.198;9.904;2022-10-17T15:05:17;3.70;;;2.35;;
16254;SDS011;8235;52.198;9.904;2022-10-17T15:07:47;5.07;;;2.40;;
16254;SDS011;8235;52.198;9.904;2022-10-17T15:10:22;5.25;;;2.58;;
16254;SDS011;8235;52.198;9.904;2022-10-17T15:12:57;6.63;;;2.53;;
16254;SDS011;8235;52.198;9.904;2022-10-17T15:15:25;4.40;;;3.13;;
16254;SDS011;8235;52.198;9.904;2022-10-17T15:17:51;6.88;;;2.67;;
16254;SDS011;8235;52.198;9.904;2022-10-17T15:20:18;4.22;;;3.40;;
16254;SDS011;8235;52.198;9.904;2022-10-17T15:22:45;3.75;;;2.58;;
16254;SDS011;8235;52.198;9.904;2022-10-17T15:25:12;7.03;;;2.70;;
16254;SDS011;8235;52.198;9.904;2022-10-17T15:27:38;7.82;;;3.30;;